Airfield :
LOGIN :

Register | Disclaimer

   EN    FR    IT 

 










Legend :    VFR   Marginal VFR   IFR   Intensive IFR   Very Intensive IFR
Visi :
Ceiling :
>= 8 km
>= 3000ft
5 to 8 km
1000 to 3000 ft
1500m to 5 km
500 to 1000 ft
800 to 1500m
200 to 500 ft
< 800m
< 200 ft
Symbols :   Thunderstorms  Fog  Heavy snow  Heavy precipitations  Wind > 20 kt
SIGMETs :     Misc.  Thunderstorms  Icing  Turbulence  Mountain Waves  Volcanic Ashes







- Airport Elevation : 686 ft


LYKV - Ladevci

CURRENT METAR :
  • 210700Z 03003KT 360V070 8000 BKN007 OVC023 01/M01 Q1020 NOSIG

EXPIRED METARs :
  • 210630Z 03003KT 350V050 6000 BKN007 OVC023 01/M01 Q1019 NOSIG
  • 210600Z 02003KT 340V050 6000 -DZ OVC013 01/M01 Q1019 NOSIG
  • 210530Z 04004KT 010V080 6000 OVC013 01/M01 Q1019 NOSIG
  • 210500Z 02005KT 350V050 6000 OVC013 01/M00 Q1019 NOSIG
  • 210430Z 36004KT 310V070 4000 BR OVC012 01/M00 Q1019 NOSIG
  • 210400Z 02004KT 4000 BR OVC012 01/M00 Q1019 NOSIG

TAF TAF LYKV
Valid from the 21 at 06:00 until the 22 at 06:00 UTC


210500Z 2106/2206 03005KT 6000 OVC010 TX02/2112Z TNM02/2205Z
TEMPO 2006/2008 3000 BR OVC007
TEMPO 2110/2116 BKN015 OVC023
TEMPO 2118/2206 4000 -SN BKN007 BKN023
No reported NOTAMs for that airfield.



MET'MAP, your aeronautical weather chart ! - Copyright ORBIFLY December 2007 - Disclaimer

ORBIFLY MET'MAP TEAM :

Programming & Development : Alexandra Zaïnal
Concept & Development : Baudouin d'Aumeries
Co-Development & Prog : Marc-Olivier Méhu
Technical & hardware support : Manuel Goepfert

Contact : metmap@orbifly.com




SOURCES & CREDITS :

   NOAA